KSLI

Los Alamitos AAF Airport

Los Alamitos, California, USA
TAF KSLI 261302Z 2613/2719 VRB06KT 9999 BKN015 QNH3000INS TEMPO 2614/2617 BKN020 BECMG 2618/2619 24009KT 9999 SCT020 QNH2994INS BECMG 2702/2703 VRB06KT 9999 BKN015 QNH2997INS BECMG 2714/2715 VRB06KT 9999 BKN020 QNH3001INS TX26/2621Z TN08/2713Z
Issued Valid From Valid To
Apr-26 @ 13:02 UTC
(30 minutes ago)
Apr-26 @ 13:00 UTC
(32 minutes ago)
Apr-27 @ 19:00 UTC
(-1 days ago)
Apr-26 @ 13:00 to Apr-26 @ 18:00
TAF KSLI 261302Z 2613/2719 VRB06KT 9999 BKN015 QNH3000INS
Wind Visibility Clouds Readings
Variable at 6 knots Greater than 6 miles
  • Broken at 1,500' AGL
Altimeter 30" Hg
Pressure 1016 hPa
Temporary Apr-26 @ 14:00 to Apr-26 @ 17:00
TEMPO 2614/2617 BKN020
Clouds
  • Broken at 2,000' AGL
Becoming Apr-26 @ 18:00 to Apr-27 @ 02:00
BECMG 2618/2619 24009KT 9999 SCT020 QNH2994INS
Wind Visibility Clouds Readings
240° at 9 knots Greater than 6 miles
  • Scattered at 2,000' AGL
Altimeter 29.94" Hg
Pressure 1014 hPa
Becoming Apr-27 @ 02:00 to Apr-27 @ 14:00
BECMG 2702/2703 VRB06KT 9999 BKN015 QNH2997INS
Wind Visibility Clouds Readings
Variable at 6 knots Greater than 6 miles
  • Broken at 1,500' AGL
Altimeter 29.97" Hg
Pressure 1015 hPa
Becoming Apr-27 @ 14:00 to Apr-27 @ 19:00
BECMG 2714/2715 VRB06KT 9999 BKN020 QNH3001INS TX26/2621Z TN08/2713Z
Wind Visibility Clouds Readings
Variable at 6 knots Greater than 6 miles
  • Broken at 2,000' AGL
Altimeter 30" Hg
Pressure 1016 hPa
TAF KSLI 261302Z 2613/2719 VRB06KT 9999 BKN015 QNH3000INS TEMPO 2614/2617 BKN020 BECMG 2618/2619 24009KT 9999 SCT020 QNH2994INS BECMG 2702/2703 VRB06KT 9999 BKN015 QNH2997INS BECMG 2714/2715 VRB06KT 9999 BKN020 QNH3001INS TX26/2621Z TN08/2713Z
Issued Apr-26 @ 13:02 UTC
(30 minutes ago)
Valid From Apr-26 @ 13:00 UTC
(32 minutes ago)
Valid To Apr-27 @ 19:00 UTC
(-1 days ago)
Apr-26 @ 13:00 - Apr-26 @ 18:00
Wind Visibility
Variable at 6 knots Greater than 6 miles
Clouds
  • Broken at 1,500' AGL
Temporary Apr-26 @ 14:00 - Apr-26 @ 17:00
Clouds
  • Broken at 2,000' AGL
Becoming Apr-26 @ 18:00 - Apr-27 @ 02:00
Wind Visibility
240° at 9 knots Greater than 6 miles
Clouds
  • Scattered at 2,000' AGL
Becoming Apr-27 @ 02:00 - Apr-27 @ 14:00
Wind Visibility
Variable at 6 knots Greater than 6 miles
Clouds
  • Broken at 1,500' AGL
Becoming Apr-27 @ 14:00 - Apr-27 @ 19:00
Wind Visibility
Variable at 6 knots Greater than 6 miles
Clouds
  • Broken at 2,000' AGL